sensor_id;sensor_type;location;lat;lon;timestamp;P1;durP1;ratioP1;P2;durP2;ratioP2
635;SDS011;302;50.206;8.196;2022-09-09T00:00:21;3.72;;;1.75;;
635;SDS011;302;50.206;8.196;2022-09-09T00:03:02;2.47;;;1.10;;
635;SDS011;302;50.206;8.196;2022-09-09T00:05:34;2.30;;;1.80;;
635;SDS011;302;50.206;8.196;2022-09-09T00:08:02;2.95;;;1.58;;
635;SDS011;302;50.206;8.196;2022-09-09T00:10:32;2.10;;;1.40;;
635;SDS011;302;50.206;8.196;2022-09-09T00:13:01;2.10;;;1.60;;
635;SDS011;302;50.206;8.196;2022-09-09T00:15:40;4.00;;;1.40;;
635;SDS011;302;50.206;8.196;2022-09-09T00:18:11;2.40;;;1.38;;
635;SDS011;302;50.206;8.196;2022-09-09T00:23:16;2.22;;;1.20;;
635;SDS011;302;50.206;8.196;2022-09-09T00:28:28;1.50;;;1.40;;
635;SDS011;302;50.206;8.196;2022-09-09T00:30:59;1.80;;;1.10;;
635;SDS011;302;50.206;8.196;2022-09-09T00:33:26;2.20;;;1.23;;
635;SDS011;302;50.206;8.196;2022-09-09T00:35:52;3.10;;;1.57;;
635;SDS011;302;50.206;8.196;2022-09-09T00:38:22;2.47;;;1.40;;
635;SDS011;302;50.206;8.196;2022-09-09T00:43:33;1.93;;;1.50;;
635;SDS011;302;50.206;8.196;2022-09-09T00:51:25;2.60;;;1.83;;
635;SDS011;302;50.206;8.196;2022-09-09T00:53:56;1.75;;;1.27;;
635;SDS011;302;50.206;8.196;2022-09-09T00:56:25;1.40;;;1.30;;
635;SDS011;302;50.206;8.196;2022-09-09T00:59:39;2.53;;;1.40;;
635;SDS011;302;50.206;8.196;2022-09-09T01:01:37;2.58;;;1.40;;
635;SDS011;302;50.206;8.196;2022-09-09T01:04:04;3.13;;;1.48;;
635;SDS011;302;50.206;8.196;2022-09-09T01:06:32;3.58;;;1.77;;
635;SDS011;302;50.206;8.196;2022-09-09T01:14:29;1.75;;;1.25;;
635;SDS011;302;50.206;8.196;2022-09-09T01:16:56;3.20;;;1.55;;
635;SDS011;302;50.206;8.196;2022-09-09T01:19:36;3.35;;;1.58;;
635;SDS011;302;50.206;8.196;2022-09-09T01:22:07;2.58;;;1.83;;
635;SDS011;302;50.206;8.196;2022-09-09T01:24:45;2.22;;;1.48;;
635;SDS011;302;50.206;8.196;2022-09-09T01:27:13;2.35;;;1.63;;
635;SDS011;302;50.206;8.196;2022-09-09T01:29:40;1.33;;;1.23;;
635;SDS011;302;50.206;8.196;2022-09-09T01:34:49;2.30;;;1.50;;
635;SDS011;302;50.206;8.196;2022-09-09T01:37:15;2.20;;;1.90;;
635;SDS011;302;50.206;8.196;2022-09-09T01:39:40;3.77;;;1.30;;
635;SDS011;302;50.206;8.196;2022-09-09T01:42:08;1.95;;;1.75;;
635;SDS011;302;50.206;8.196;2022-09-09T01:44:33;2.92;;;1.60;;
635;SDS011;302;50.206;8.196;2022-09-09T01:46:59;2.23;;;1.47;;
635;SDS011;302;50.206;8.196;2022-09-09T01:49:24;2.83;;;1.70;;
635;SDS011;302;50.206;8.196;2022-09-09T01:51:51;1.70;;;1.50;;
635;SDS011;302;50.206;8.196;2022-09-09T01:54:17;3.00;;;1.63;;
635;SDS011;302;50.206;8.196;2022-09-09T02:06:46;3.30;;;1.98;;
635;SDS011;302;50.206;8.196;2022-09-09T02:09:13;1.83;;;1.60;;
635;SDS011;302;50.206;8.196;2022-09-09T02:11:40;1.63;;;1.50;;
635;SDS011;302;50.206;8.196;2022-09-09T02:14:08;4.25;;;1.58;;
635;SDS011;302;50.206;8.196;2022-09-09T02:19:22;2.87;;;1.50;;
635;SDS011;302;50.206;8.196;2022-09-09T02:21:51;1.55;;;1.42;;
635;SDS011;302;50.206;8.196;2022-09-09T02:24:18;2.65;;;1.70;;
635;SDS011;302;50.206;8.196;2022-09-09T02:26:44;5.25;;;2.45;;
635;SDS011;302;50.206;8.196;2022-09-09T02:29:14;4.80;;;1.90;;
635;SDS011;302;50.206;8.196;2022-09-09T02:31:41;3.05;;;1.63;;
635;SDS011;302;50.206;8.196;2022-09-09T02:34:07;2.80;;;1.50;;
635;SDS011;302;50.206;8.196;2022-09-09T02:36:37;1.85;;;1.60;;
635;SDS011;302;50.206;8.196;2022-09-09T02:39:04;3.47;;;1.70;;
635;SDS011;302;50.206;8.196;2022-09-09T02:41:32;2.00;;;1.80;;
635;SDS011;302;50.206;8.196;2022-09-09T02:43:57;2.78;;;1.33;;
635;SDS011;302;50.206;8.196;2022-09-09T02:46:24;2.97;;;1.70;;
635;SDS011;302;50.206;8.196;2022-09-09T02:51:29;3.75;;;2.10;;
635;SDS011;302;50.206;8.196;2022-09-09T02:56:27;1.70;;;1.60;;
635;SDS011;302;50.206;8.196;2022-09-09T02:58:55;3.28;;;1.85;;
635;SDS011;302;50.206;8.196;2022-09-09T03:01:20;5.10;;;2.00;;
635;SDS011;302;50.206;8.196;2022-09-09T03:03:46;2.33;;;1.90;;
635;SDS011;302;50.206;8.196;2022-09-09T03:06:11;2.93;;;1.90;;
635;SDS011;302;50.206;8.196;2022-09-09T03:08:37;2.10;;;1.77;;
635;SDS011;302;50.206;8.196;2022-09-09T03:11:02;5.27;;;2.33;;
635;SDS011;302;50.206;8.196;2022-09-09T03:13:27;4.95;;;2.40;;
635;SDS011;302;50.206;8.196;2022-09-09T03:15:52;5.18;;;1.85;;
635;SDS011;302;50.206;8.196;2022-09-09T03:18:17;3.60;;;2.13;;
635;SDS011;302;50.206;8.196;2022-09-09T03:20:42;2.90;;;2.07;;
635;SDS011;302;50.206;8.196;2022-09-09T03:23:08;1.97;;;1.77;;
635;SDS011;302;50.206;8.196;2022-09-09T03:25:33;2.23;;;1.67;;
635;SDS011;302;50.206;8.196;2022-09-09T03:27:58;9.83;;;2.33;;
635;SDS011;302;50.206;8.196;2022-09-09T03:30:25;2.27;;;1.87;;
635;SDS011;302;50.206;8.196;2022-09-09T03:32:50;2.08;;;1.85;;
635;SDS011;302;50.206;8.196;2022-09-09T03:35:15;3.10;;;2.10;;
635;SDS011;302;50.206;8.196;2022-09-09T03:37:41;2.57;;;1.70;;
635;SDS011;302;50.206;8.196;2022-09-09T03:40:06;2.23;;;2.03;;
635;SDS011;302;50.206;8.196;2022-09-09T03:42:33;2.72;;;2.17;;
635;SDS011;302;50.206;8.196;2022-09-09T03:44:58;3.70;;;2.20;;
635;SDS011;302;50.206;8.196;2022-09-09T03:47:24;2.38;;;2.10;;
635;SDS011;302;50.206;8.196;2022-09-09T03:49:49;3.20;;;2.30;;
635;SDS011;302;50.206;8.196;2022-09-09T03:52:15;2.40;;;2.13;;
635;SDS011;302;50.206;8.196;2022-09-09T03:54:40;2.33;;;2.13;;
635;SDS011;302;50.206;8.196;2022-09-09T03:57:07;2.38;;;2.17;;
635;SDS011;302;50.206;8.196;2022-09-09T03:59:33;2.10;;;2.00;;
635;SDS011;302;50.206;8.196;2022-09-09T04:01:58;4.60;;;2.37;;
635;SDS011;302;50.206;8.196;2022-09-09T04:04:24;2.93;;;2.47;;
635;SDS011;302;50.206;8.196;2022-09-09T04:06:49;3.03;;;2.67;;
635;SDS011;302;50.206;8.196;2022-09-09T04:09:15;3.45;;;2.50;;
635;SDS011;302;50.206;8.196;2022-09-09T04:11:40;3.33;;;2.92;;
635;SDS011;302;50.206;8.196;2022-09-09T04:14:06;3.90;;;3.20;;
635;SDS011;302;50.206;8.196;2022-09-09T04:16:31;3.07;;;2.77;;
635;SDS011;302;50.206;8.196;2022-09-09T04:18:57;2.90;;;2.70;;
635;SDS011;302;50.206;8.196;2022-09-09T04:21:23;3.20;;;2.90;;
635;SDS011;302;50.206;8.196;2022-09-09T04:23:48;3.60;;;2.83;;
635;SDS011;302;50.206;8.196;2022-09-09T04:26:13;3.38;;;3.08;;
635;SDS011;302;50.206;8.196;2022-09-09T04:28:38;3.20;;;2.90;;
635;SDS011;302;50.206;8.196;2022-09-09T04:31:05;4.10;;;3.30;;
635;SDS011;302;50.206;8.196;2022-09-09T04:33:30;5.85;;;3.88;;
635;SDS011;302;50.206;8.196;2022-09-09T04:35:56;3.88;;;3.53;;
635;SDS011;302;50.206;8.196;2022-09-09T04:38:21;3.70;;;3.40;;
635;SDS011;302;50.206;8.196;2022-09-09T04:40:48;4.28;;;3.58;;
635;SDS011;302;50.206;8.196;2022-09-09T04:43:13;3.63;;;3.23;;
635;SDS011;302;50.206;8.196;2022-09-09T04:45:42;3.50;;;3.22;;
635;SDS011;302;50.206;8.196;2022-09-09T04:48:07;3.70;;;3.40;;
635;SDS011;302;50.206;8.196;2022-09-09T04:50:33;4.63;;;3.30;;
635;SDS011;302;50.206;8.196;2022-09-09T04:53:02;4.40;;;3.20;;
635;SDS011;302;50.206;8.196;2022-09-09T04:55:27;3.20;;;2.90;;
635;SDS011;302;50.206;8.196;2022-09-09T04:57:53;4.63;;;2.88;;
635;SDS011;302;50.206;8.196;2022-09-09T05:00:18;3.70;;;3.40;;
635;SDS011;302;50.206;8.196;2022-09-09T05:02:44;4.23;;;3.83;;
635;SDS011;302;50.206;8.196;2022-09-09T05:05:09;3.88;;;3.30;;
635;SDS011;302;50.206;8.196;2022-09-09T05:07:36;4.13;;;3.72;;
635;SDS011;302;50.206;8.196;2022-09-09T05:10:02;4.30;;;3.70;;
635;SDS011;302;50.206;8.196;2022-09-09T05:12:29;3.83;;;3.53;;
635;SDS011;302;50.206;8.196;2022-09-09T05:14:54;3.53;;;3.22;;
635;SDS011;302;50.206;8.196;2022-09-09T05:17:19;3.80;;;3.47;;
635;SDS011;302;50.206;8.196;2022-09-09T05:19:45;4.23;;;3.87;;
635;SDS011;302;50.206;8.196;2022-09-09T05:22:10;4.28;;;3.80;;
635;SDS011;302;50.206;8.196;2022-09-09T05:24:36;6.00;;;3.50;;
635;SDS011;302;50.206;8.196;2022-09-09T05:27:02;3.50;;;3.20;;
635;SDS011;302;50.206;8.196;2022-09-09T05:29:27;4.10;;;3.80;;
635;SDS011;302;50.206;8.196;2022-09-09T05:31:52;4.20;;;3.80;;
635;SDS011;302;50.206;8.196;2022-09-09T05:34:18;4.18;;;3.75;;
635;SDS011;302;50.206;8.196;2022-09-09T05:36:43;4.43;;;4.03;;
635;SDS011;302;50.206;8.196;2022-09-09T05:39:08;4.37;;;3.97;;
635;SDS011;302;50.206;8.196;2022-09-09T05:41:33;4.00;;;3.70;;
635;SDS011;302;50.206;8.196;2022-09-09T05:44:00;4.10;;;3.75;;
635;SDS011;302;50.206;8.196;2022-09-09T05:46:26;3.73;;;3.53;;
635;SDS011;302;50.206;8.196;2022-09-09T05:48:51;3.83;;;3.50;;
635;SDS011;302;50.206;8.196;2022-09-09T05:51:20;4.07;;;3.73;;
635;SDS011;302;50.206;8.196;2022-09-09T05:53:47;3.90;;;3.40;;
635;SDS011;302;50.206;8.196;2022-09-09T05:56:16;3.80;;;3.47;;
635;SDS011;302;50.206;8.196;2022-09-09T05:58:42;4.40;;;4.05;;
635;SDS011;302;50.206;8.196;2022-09-09T06:01:18;4.20;;;3.80;;
635;SDS011;302;50.206;8.196;2022-09-09T06:03:44;6.95;;;3.53;;
635;SDS011;302;50.206;8.196;2022-09-09T06:06:11;3.45;;;3.25;;
635;SDS011;302;50.206;8.196;2022-09-09T06:08:37;4.00;;;3.80;;
635;SDS011;302;50.206;8.196;2022-09-09T06:13:29;3.57;;;3.27;;
635;SDS011;302;50.206;8.196;2022-09-09T06:15:54;4.50;;;3.40;;
635;SDS011;302;50.206;8.196;2022-09-09T06:18:19;3.50;;;3.10;;
635;SDS011;302;50.206;8.196;2022-09-09T06:21:00;7.15;;;3.83;;
635;SDS011;302;50.206;8.196;2022-09-09T06:23:25;3.88;;;3.17;;
635;SDS011;302;50.206;8.196;2022-09-09T06:25:51;3.73;;;3.30;;
635;SDS011;302;50.206;8.196;2022-09-09T06:28:17;3.70;;;3.40;;
635;SDS011;302;50.206;8.196;2022-09-09T06:30:42;2.85;;;2.65;;
635;SDS011;302;50.206;8.196;2022-09-09T06:33:08;4.63;;;3.33;;
635;SDS011;302;50.206;8.196;2022-09-09T06:35:34;4.25;;;2.97;;
635;SDS011;302;50.206;8.196;2022-09-09T06:37:59;3.10;;;2.80;;
635;SDS011;302;50.206;8.196;2022-09-09T06:40:24;2.70;;;2.60;;
635;SDS011;302;50.206;8.196;2022-09-09T06:42:49;3.13;;;2.90;;
635;SDS011;302;50.206;8.196;2022-09-09T06:45:15;3.50;;;3.20;;
635;SDS011;302;50.206;8.196;2022-09-09T06:47:40;3.23;;;3.03;;
635;SDS011;302;50.206;8.196;2022-09-09T06:50:06;5.03;;;3.60;;
635;SDS011;302;50.206;8.196;2022-09-09T06:52:32;4.63;;;3.15;;
635;SDS011;302;50.206;8.196;2022-09-09T06:54:58;3.75;;;3.45;;
635;SDS011;302;50.206;8.196;2022-09-09T06:57:23;4.18;;;3.28;;
635;SDS011;302;50.206;8.196;2022-09-09T06:59:49;2.97;;;2.77;;
635;SDS011;302;50.206;8.196;2022-09-09T07:02:14;4.57;;;3.20;;
635;SDS011;302;50.206;8.196;2022-09-09T07:04:39;4.40;;;2.90;;
635;SDS011;302;50.206;8.196;2022-09-09T07:07:04;3.83;;;2.80;;
635;SDS011;302;50.206;8.196;2022-09-09T07:09:29;3.03;;;2.77;;
635;SDS011;302;50.206;8.196;2022-09-09T07:11:56;4.63;;;3.03;;
635;SDS011;302;50.206;8.196;2022-09-09T07:14:24;3.10;;;2.90;;
635;SDS011;302;50.206;8.196;2022-09-09T07:16:49;2.90;;;2.70;;
635;SDS011;302;50.206;8.196;2022-09-09T07:19:14;3.47;;;3.13;;
635;SDS011;302;50.206;8.196;2022-09-09T07:21:40;3.73;;;3.00;;
635;SDS011;302;50.206;8.196;2022-09-09T07:24:07;3.58;;;2.95;;
635;SDS011;302;50.206;8.196;2022-09-09T07:26:35;3.53;;;3.20;;
635;SDS011;302;50.206;8.196;2022-09-09T07:29:01;3.70;;;3.40;;
635;SDS011;302;50.206;8.196;2022-09-09T07:31:27;3.60;;;3.30;;
635;SDS011;302;50.206;8.196;2022-09-09T07:33:53;6.45;;;3.97;;
635;SDS011;302;50.206;8.196;2022-09-09T07:36:19;4.50;;;4.10;;
635;SDS011;302;50.206;8.196;2022-09-09T07:38:49;5.00;;;4.70;;
635;SDS011;302;50.206;8.196;2022-09-09T07:41:18;6.40;;;3.67;;
635;SDS011;302;50.206;8.196;2022-09-09T07:43:44;5.22;;;4.20;;
635;SDS011;302;50.206;8.196;2022-09-09T07:46:11;4.70;;;4.30;;
635;SDS011;302;50.206;8.196;2022-09-09T07:48:37;4.15;;;3.72;;
635;SDS011;302;50.206;8.196;2022-09-09T07:51:10;4.03;;;3.73;;
635;SDS011;302;50.206;8.196;2022-09-09T07:53:36;4.25;;;3.85;;
635;SDS011;302;50.206;8.196;2022-09-09T07:56:07;3.80;;;3.50;;
635;SDS011;302;50.206;8.196;2022-09-09T07:58:34;4.60;;;3.65;;
635;SDS011;302;50.206;8.196;2022-09-09T08:00:59;4.10;;;3.80;;
635;SDS011;302;50.206;8.196;2022-09-09T08:03:24;4.30;;;3.90;;
635;SDS011;302;50.206;8.196;2022-09-09T08:05:50;3.73;;;3.43;;
635;SDS011;302;50.206;8.196;2022-09-09T08:08:15;5.00;;;3.97;;
635;SDS011;302;50.206;8.196;2022-09-09T08:10:41;3.90;;;3.10;;
635;SDS011;302;50.206;8.196;2022-09-09T08:13:07;3.37;;;3.07;;
635;SDS011;302;50.206;8.196;2022-09-09T08:15:33;4.25;;;3.30;;
635;SDS011;302;50.206;8.196;2022-09-09T08:17:59;3.43;;;3.20;;
635;SDS011;302;50.206;8.196;2022-09-09T08:20:24;3.40;;;3.10;;
635;SDS011;302;50.206;8.196;2022-09-09T08:22:50;3.90;;;2.90;;
635;SDS011;302;50.206;8.196;2022-09-09T08:25:15;5.20;;;2.80;;
635;SDS011;302;50.206;8.196;2022-09-09T08:27:40;4.80;;;2.43;;
635;SDS011;302;50.206;8.196;2022-09-09T08:30:05;2.33;;;2.13;;
635;SDS011;302;50.206;8.196;2022-09-09T08:32:31;5.67;;;3.47;;
635;SDS011;302;50.206;8.196;2022-09-09T08:34:56;3.40;;;2.55;;
635;SDS011;302;50.206;8.196;2022-09-09T08:37:22;2.90;;;2.70;;
635;SDS011;302;50.206;8.196;2022-09-09T08:39:47;6.53;;;2.80;;
635;SDS011;302;50.206;8.196;2022-09-09T08:45:04;5.45;;;2.80;;
635;SDS011;302;50.206;8.196;2022-09-09T08:50:19;3.75;;;2.80;;
635;SDS011;302;50.206;8.196;2022-09-09T08:58:02;4.90;;;2.65;;
635;SDS011;302;50.206;8.196;2022-09-09T09:00:41;3.70;;;2.75;;
635;SDS011;302;50.206;8.196;2022-09-09T09:09:04;3.00;;;2.72;;
635;SDS011;302;50.206;8.196;2022-09-09T09:11:08;3.10;;;2.50;;
635;SDS011;302;50.206;8.196;2022-09-09T09:13:43;4.37;;;2.70;;
635;SDS011;302;50.206;8.196;2022-09-09T09:16:13;2.88;;;2.58;;
635;SDS011;302;50.206;8.196;2022-09-09T09:18:40;5.55;;;3.05;;
635;SDS011;302;50.206;8.196;2022-09-09T09:21:17;2.78;;;2.47;;
635;SDS011;302;50.206;8.196;2022-09-09T09:23:49;2.67;;;2.47;;
635;SDS011;302;50.206;8.196;2022-09-09T09:26:18;3.63;;;2.65;;
635;SDS011;302;50.206;8.196;2022-09-09T09:28:44;3.90;;;2.90;;
635;SDS011;302;50.206;8.196;2022-09-09T09:31:10;2.60;;;2.40;;
635;SDS011;302;50.206;8.196;2022-09-09T09:33:43;3.80;;;2.60;;
635;SDS011;302;50.206;8.196;2022-09-09T09:36:11;3.85;;;2.63;;
635;SDS011;302;50.206;8.196;2022-09-09T09:38:40;3.45;;;2.70;;
635;SDS011;302;50.206;8.196;2022-09-09T09:41:16;2.30;;;2.10;;
635;SDS011;302;50.206;8.196;2022-09-09T09:43:43;6.65;;;2.47;;
635;SDS011;302;50.206;8.196;2022-09-09T09:46:21;3.47;;;2.60;;
635;SDS011;302;50.206;8.196;2022-09-09T09:49:01;3.25;;;2.40;;
635;SDS011;302;50.206;8.196;2022-09-09T09:51:27;2.65;;;2.45;;
635;SDS011;302;50.206;8.196;2022-09-09T09:53:53;3.65;;;2.42;;
635;SDS011;302;50.206;8.196;2022-09-09T09:56:25;3.27;;;2.30;;
635;SDS011;302;50.206;8.196;2022-09-09T09:58:51;3.88;;;2.30;;
635;SDS011;302;50.206;8.196;2022-09-09T10:01:22;2.45;;;1.90;;
635;SDS011;302;50.206;8.196;2022-09-09T10:03:53;2.72;;;2.38;;
635;SDS011;302;50.206;8.196;2022-09-09T10:06:29;3.95;;;2.00;;
635;SDS011;302;50.206;8.196;2022-09-09T10:08:54;2.60;;;1.80;;
635;SDS011;302;50.206;8.196;2022-09-09T10:12:02;1.93;;;1.73;;
635;SDS011;302;50.206;8.196;2022-09-09T10:14:51;2.05;;;1.85;;
635;SDS011;302;50.206;8.196;2022-09-09T10:17:20;3.53;;;1.80;;
635;SDS011;302;50.206;8.196;2022-09-09T10:19:46;2.30;;;2.10;;
635;SDS011;302;50.206;8.196;2022-09-09T10:22:24;3.03;;;1.98;;
635;SDS011;302;50.206;8.196;2022-09-09T10:30:29;2.40;;;1.95;;
635;SDS011;302;50.206;8.196;2022-09-09T10:33:09;3.40;;;1.50;;
635;SDS011;302;50.206;8.196;2022-09-09T10:38:14;1.90;;;1.42;;
635;SDS011;302;50.206;8.196;2022-09-09T10:40:46;2.20;;;1.50;;
635;SDS011;302;50.206;8.196;2022-09-09T10:51:39;2.30;;;1.45;;
635;SDS011;302;50.206;8.196;2022-09-09T10:56:42;2.38;;;1.60;;
635;SDS011;302;50.206;8.196;2022-09-09T10:59:14;2.40;;;1.38;;
635;SDS011;302;50.206;8.196;2022-09-09T11:01:49;3.00;;;1.50;;
635;SDS011;302;50.206;8.196;2022-09-09T11:04:17;2.22;;;1.33;;
635;SDS011;302;50.206;8.196;2022-09-09T11:06:44;2.50;;;1.30;;
635;SDS011;302;50.206;8.196;2022-09-09T11:09:14;2.03;;;1.30;;
635;SDS011;302;50.206;8.196;2022-09-09T11:12:01;1.47;;;1.17;;
635;SDS011;302;50.206;8.196;2022-09-09T11:14:37;1.60;;;1.07;;
635;SDS011;302;50.206;8.196;2022-09-09T11:17:15;1.97;;;1.10;;
635;SDS011;302;50.206;8.196;2022-09-09T11:19:42;3.10;;;1.13;;
635;SDS011;302;50.206;8.196;2022-09-09T11:22:21;2.87;;;1.30;;
635;SDS011;302;50.206;8.196;2022-09-09T11:25:31;2.60;;;1.50;;
635;SDS011;302;50.206;8.196;2022-09-09T11:30:26;1.40;;;1.30;;
635;SDS011;302;50.206;8.196;2022-09-09T11:40:38;2.85;;;1.50;;
635;SDS011;302;50.206;8.196;2022-09-09T11:43:49;2.40;;;1.50;;
635;SDS011;302;50.206;8.196;2022-09-09T11:45:53;2.00;;;1.50;;
635;SDS011;302;50.206;8.196;2022-09-09T11:48:26;2.05;;;1.30;;
635;SDS011;302;50.206;8.196;2022-09-09T11:51:28;1.60;;;1.50;;
635;SDS011;302;50.206;8.196;2022-09-09T11:53:52;1.95;;;1.52;;
635;SDS011;302;50.206;8.196;2022-09-09T11:59:03;1.93;;;1.57;;
635;SDS011;302;50.206;8.196;2022-09-09T12:01:38;2.03;;;1.53;;
635;SDS011;302;50.206;8.196;2022-09-09T12:04:05;3.83;;;1.80;;
635;SDS011;302;50.206;8.196;2022-09-09T12:09:25;3.00;;;1.50;;
635;SDS011;302;50.206;8.196;2022-09-09T12:11:51;3.00;;;2.05;;
635;SDS011;302;50.206;8.196;2022-09-09T12:14:20;2.60;;;1.47;;
635;SDS011;302;50.206;8.196;2022-09-09T12:16:46;3.40;;;2.07;;
635;SDS011;302;50.206;8.196;2022-09-09T12:21:43;3.43;;;1.70;;
635;SDS011;302;50.206;8.196;2022-09-09T12:24:11;3.27;;;1.60;;
635;SDS011;302;50.206;8.196;2022-09-09T12:31:34;1.50;;;1.00;;
635;SDS011;302;50.206;8.196;2022-09-09T12:34:11;4.40;;;2.53;;
635;SDS011;302;50.206;8.196;2022-09-09T12:36:38;2.60;;;1.10;;
635;SDS011;302;50.206;8.196;2022-09-09T12:39:16;2.67;;;1.03;;
635;SDS011;302;50.206;8.196;2022-09-09T12:41:50;1.93;;;0.97;;
635;SDS011;302;50.206;8.196;2022-09-09T12:44:21;2.90;;;1.20;;
635;SDS011;302;50.206;8.196;2022-09-09T12:46:46;2.27;;;0.80;;
635;SDS011;302;50.206;8.196;2022-09-09T12:51:52;2.70;;;0.90;;
635;SDS011;302;50.206;8.196;2022-09-09T12:54:18;1.10;;;0.80;;
635;SDS011;302;50.206;8.196;2022-09-09T12:56:46;1.43;;;1.10;;
635;SDS011;302;50.206;8.196;2022-09-09T12:59:46;1.73;;;1.00;;
635;SDS011;302;50.206;8.196;2022-09-09T13:02:24;3.73;;;0.90;;
635;SDS011;302;50.206;8.196;2022-09-09T13:04:50;2.30;;;1.00;;
635;SDS011;302;50.206;8.196;2022-09-09T13:07:16;1.73;;;1.50;;
635;SDS011;302;50.206;8.196;2022-09-09T13:09:41;2.80;;;1.10;;
635;SDS011;302;50.206;8.196;2022-09-09T13:12:09;3.37;;;1.33;;
635;SDS011;302;50.206;8.196;2022-09-09T13:14:38;1.47;;;1.20;;
635;SDS011;302;50.206;8.196;2022-09-09T13:17:04;1.73;;;1.10;;
635;SDS011;302;50.206;8.196;2022-09-09T13:19:31;1.83;;;1.57;;
635;SDS011;302;50.206;8.196;2022-09-09T13:21:57;2.70;;;0.87;;
635;SDS011;302;50.206;8.196;2022-09-09T13:24:30;1.40;;;1.07;;
635;SDS011;302;50.206;8.196;2022-09-09T13:26:59;1.87;;;0.93;;
635;SDS011;302;50.206;8.196;2022-09-09T13:29:26;1.70;;;0.90;;
635;SDS011;302;50.206;8.196;2022-09-09T13:31:52;2.60;;;1.17;;
635;SDS011;302;50.206;8.196;2022-09-09T13:34:32;2.00;;;1.10;;
635;SDS011;302;50.206;8.196;2022-09-09T13:37:04;3.40;;;1.50;;
635;SDS011;302;50.206;8.196;2022-09-09T13:39:31;2.10;;;0.90;;
635;SDS011;302;50.206;8.196;2022-09-09T13:41:57;2.40;;;1.20;;
635;SDS011;302;50.206;8.196;2022-09-09T13:44:30;2.20;;;1.17;;
635;SDS011;302;50.206;8.196;2022-09-09T13:47:03;2.83;;;1.13;;
635;SDS011;302;50.206;8.196;2022-09-09T13:49:29;1.60;;;1.00;;
635;SDS011;302;50.206;8.196;2022-09-09T13:52:14;1.60;;;1.00;;
635;SDS011;302;50.206;8.196;2022-09-09T13:54:41;1.50;;;1.03;;
635;SDS011;302;50.206;8.196;2022-09-09T13:57:16;2.43;;;1.20;;
635;SDS011;302;50.206;8.196;2022-09-09T13:59:43;2.90;;;1.87;;
635;SDS011;302;50.206;8.196;2022-09-09T14:02:08;2.10;;;1.00;;
635;SDS011;302;50.206;8.196;2022-09-09T14:04:33;1.88;;;1.10;;
635;SDS011;302;50.206;8.196;2022-09-09T14:06:59;2.37;;;1.10;;
635;SDS011;302;50.206;8.196;2022-09-09T14:09:25;2.40;;;1.30;;
635;SDS011;302;50.206;8.196;2022-09-09T14:11:50;1.97;;;1.20;;
635;SDS011;302;50.206;8.196;2022-09-09T14:14:15;3.53;;;1.20;;
635;SDS011;302;50.206;8.196;2022-09-09T14:16:40;1.93;;;1.13;;
635;SDS011;302;50.206;8.196;2022-09-09T14:19:07;4.57;;;1.20;;
635;SDS011;302;50.206;8.196;2022-09-09T14:21:33;1.60;;;1.07;;
635;SDS011;302;50.206;8.196;2022-09-09T14:23:58;3.20;;;1.10;;
635;SDS011;302;50.206;8.196;2022-09-09T14:26:24;1.60;;;1.50;;
635;SDS011;302;50.206;8.196;2022-09-09T14:28:49;2.20;;;1.30;;
635;SDS011;302;50.206;8.196;2022-09-09T14:31:15;1.40;;;1.10;;
635;SDS011;302;50.206;8.196;2022-09-09T14:33:42;1.60;;;1.25;;
635;SDS011;302;50.206;8.196;2022-09-09T14:36:07;3.35;;;1.15;;
635;SDS011;302;50.206;8.196;2022-09-09T14:38:33;3.63;;;1.47;;
635;SDS011;302;50.206;8.196;2022-09-09T14:40:59;1.93;;;1.30;;
635;SDS011;302;50.206;8.196;2022-09-09T14:43:24;1.97;;;1.17;;
635;SDS011;302;50.206;8.196;2022-09-09T14:45:49;3.40;;;1.40;;
635;SDS011;302;50.206;8.196;2022-09-09T14:48:16;1.47;;;0.90;;
635;SDS011;302;50.206;8.196;2022-09-09T14:50:41;2.10;;;0.90;;
635;SDS011;302;50.206;8.196;2022-09-09T14:53:07;1.73;;;0.90;;
635;SDS011;302;50.206;8.196;2022-09-09T14:55:33;2.57;;;1.20;;
635;SDS011;302;50.206;8.196;2022-09-09T14:57:59;2.90;;;1.27;;
635;SDS011;302;50.206;8.196;2022-09-09T15:00:24;2.85;;;1.20;;
635;SDS011;302;50.206;8.196;2022-09-09T15:02:51;2.17;;;0.93;;
635;SDS011;302;50.206;8.196;2022-09-09T15:05:16;2.03;;;0.90;;
635;SDS011;302;50.206;8.196;2022-09-09T15:07:42;1.30;;;0.87;;
635;SDS011;302;50.206;8.196;2022-09-09T15:10:07;2.10;;;1.00;;
635;SDS011;302;50.206;8.196;2022-09-09T15:12:32;2.67;;;1.10;;
635;SDS011;302;50.206;8.196;2022-09-09T15:14:58;1.40;;;1.10;;
635;SDS011;302;50.206;8.196;2022-09-09T15:17:23;3.57;;;1.00;;
635;SDS011;302;50.206;8.196;2022-09-09T15:19:52;3.37;;;1.40;;
635;SDS011;302;50.206;8.196;2022-09-09T15:22:17;2.97;;;1.40;;
635;SDS011;302;50.206;8.196;2022-09-09T15:24:42;1.37;;;0.87;;
635;SDS011;302;50.206;8.196;2022-09-09T15:27:07;1.90;;;1.10;;
635;SDS011;302;50.206;8.196;2022-09-09T15:29:33;2.07;;;1.10;;
635;SDS011;302;50.206;8.196;2022-09-09T15:31:58;3.88;;;1.23;;
635;SDS011;302;50.206;8.196;2022-09-09T15:34:23;1.10;;;1.00;;
635;SDS011;302;50.206;8.196;2022-09-09T15:36:48;2.63;;;1.07;;
635;SDS011;302;50.206;8.196;2022-09-09T15:39:14;1.20;;;0.90;;
635;SDS011;302;50.206;8.196;2022-09-09T15:41:43;1.80;;;1.20;;
635;SDS011;302;50.206;8.196;2022-09-09T15:44:08;2.13;;;1.20;;
635;SDS011;302;50.206;8.196;2022-09-09T15:46:36;1.60;;;1.15;;
635;SDS011;302;50.206;8.196;2022-09-09T15:54:18;2.00;;;1.00;;
635;SDS011;302;50.206;8.196;2022-09-09T15:56:44;1.30;;;1.03;;
635;SDS011;302;50.206;8.196;2022-09-09T15:59:10;1.65;;;1.42;;
635;SDS011;302;50.206;8.196;2022-09-09T16:01:36;1.77;;;1.27;;
635;SDS011;302;50.206;8.196;2022-09-09T16:04:01;2.30;;;1.30;;
635;SDS011;302;50.206;8.196;2022-09-09T16:06:27;1.87;;;1.23;;
635;SDS011;302;50.206;8.196;2022-09-09T16:08:53;1.73;;;1.48;;
635;SDS011;302;50.206;8.196;2022-09-09T16:11:22;1.93;;;1.10;;
635;SDS011;302;50.206;8.196;2022-09-09T16:13:49;2.70;;;1.45;;
635;SDS011;302;50.206;8.196;2022-09-09T16:16:16;3.15;;;1.50;;
635;SDS011;302;50.206;8.196;2022-09-09T16:21:06;1.40;;;1.20;;
635;SDS011;302;50.206;8.196;2022-09-09T16:23:33;2.03;;;1.20;;
635;SDS011;302;50.206;8.196;2022-09-09T16:25:58;2.40;;;1.40;;
635;SDS011;302;50.206;8.196;2022-09-09T16:28:24;1.93;;;1.20;;
635;SDS011;302;50.206;8.196;2022-09-09T16:30:49;2.17;;;1.27;;
635;SDS011;302;50.206;8.196;2022-09-09T16:33:14;1.50;;;1.33;;
635;SDS011;302;50.206;8.196;2022-09-09T16:35:40;1.40;;;1.00;;
635;SDS011;302;50.206;8.196;2022-09-09T16:38:05;1.90;;;1.10;;
635;SDS011;302;50.206;8.196;2022-09-09T16:40:33;3.10;;;1.38;;
635;SDS011;302;50.206;8.196;2022-09-09T16:42:59;2.00;;;1.08;;
635;SDS011;302;50.206;8.196;2022-09-09T16:45:24;1.30;;;0.90;;
635;SDS011;302;50.206;8.196;2022-09-09T16:47:49;2.73;;;1.00;;
635;SDS011;302;50.206;8.196;2022-09-09T16:50:14;1.30;;;1.00;;
635;SDS011;302;50.206;8.196;2022-09-09T16:52:39;1.07;;;0.80;;
635;SDS011;302;50.206;8.196;2022-09-09T16:55:05;1.20;;;1.00;;
635;SDS011;302;50.206;8.196;2022-09-09T16:57:30;3.67;;;0.97;;
635;SDS011;302;50.206;8.196;2022-09-09T16:59:55;1.73;;;1.13;;
635;SDS011;302;50.206;8.196;2022-09-09T17:02:24;1.30;;;1.10;;
635;SDS011;302;50.206;8.196;2022-09-09T17:04:49;1.50;;;0.70;;
635;SDS011;302;50.206;8.196;2022-09-09T17:07:14;2.00;;;1.10;;
635;SDS011;302;50.206;8.196;2022-09-09T17:09:39;1.67;;;0.90;;
635;SDS011;302;50.206;8.196;2022-09-09T17:12:04;1.00;;;0.80;;
635;SDS011;302;50.206;8.196;2022-09-09T17:14:30;5.23;;;1.73;;
635;SDS011;302;50.206;8.196;2022-09-09T17:16:56;2.30;;;0.97;;
635;SDS011;302;50.206;8.196;2022-09-09T17:19:22;2.17;;;1.10;;
635;SDS011;302;50.206;8.196;2022-09-09T17:21:47;1.95;;;1.00;;
635;SDS011;302;50.206;8.196;2022-09-09T17:24:12;1.30;;;1.20;;
635;SDS011;302;50.206;8.196;2022-09-09T17:26:37;1.30;;;1.20;;
635;SDS011;302;50.206;8.196;2022-09-09T17:29:03;1.30;;;0.93;;
635;SDS011;302;50.206;8.196;2022-09-09T17:31:29;1.27;;;1.13;;
635;SDS011;302;50.206;8.196;2022-09-09T17:33:54;1.10;;;0.93;;
635;SDS011;302;50.206;8.196;2022-09-09T17:36:24;1.60;;;1.20;;
635;SDS011;302;50.206;8.196;2022-09-09T17:38:50;1.23;;;1.10;;